Hovedside
METAR-TAF:

METAR-TAF

Lufthavner :

Oostende, Belgia

breddegrad: 51-12N, lengdegrad: 002-52E, høyde over havet: 4 m

Gjeldene værobservasjon

Denne rapporten ble laget for 35 minutter siden, klokken 01:20 UTC
Vind 2 kt fra Sør
Temperatur 13°C
Luftfuktighet 88%
Trykk 1017 hPa
Sikt 10 km eller mer
ingen skyer under 1500 m og ingen bygeskyer

METAR: EBOS 060120Z 18002KT CAVOK 13/11 Q1017 NOSIG

Tid: 03:55 (01:55 UTC)

Varsel

Denne rapporten ble laget for 2 timer og 55 minutter siden, klokken 23:00 UTC
Varsel gyldig fra 06. klokken 00 UTC til 07. klokken 06 UTC
Vind 4 kt fra Sør
Sikt 10 km eller mer
ingen skyer under 1500 m og ingen bygeskyer
Blir
fra 06. klokken 11 UTC til 06. klokken 13 UTC
Vind 11 kt fra Nord-nordøst
Blir
fra 06. klokken 20 UTC til 06. klokken 22 UTC
Vind 5 kt fra Øst-sørøst

TAF: EBOS 052300Z 0600/0706 19004KT CAVOK BECMG 0611/0613 02011KT BECMG 0620/0622 11005KT

Værobservasjoner og værvarsel for over 4000 flyplasser (METAR- og TAF-rapporter).

Tilgjengelige stasjoner er representert av de røde og gule prikkene på kartet.

Hold musepekeren over prikken for å se navnet på stasjonen.

Klikk så for å se værobservasjoner og -varsler.

For å forandre kartet kan du klikke på den grønne knappen med svart kryss for å zoome inn, på den grønne knappen med strek for å zoome ut, eller på de grønne pilene for å se tilstøtende kart.


METAR-TAF: